Time;durP1;ratioP1;P1;durP2;ratioP2;P2;SDS_P1;SDS_P2;PMS_P1;PMS_P2;Temp;Humidity;BMP_temperature;BMP_pressure;BME280_temperature;BME280_humidity;BME280_pressure;Samples;Min_cycle;Max_cycle;Signal;HPM_P1;HPM_P2
2024/03/05 00:01:38;;;;;;;3.20;2.33;;;16.10;59.10;;;;;;5112191;28;20264;-65
2024/03/05 00:04:05;;;;;;;1.88;1.77;;;16.10;59.00;;;;;;5113272;28;20181;-65
2024/03/05 00:06:30;;;;;;;2.55;2.35;;;16.00;59.00;;;;;;5112860;28;20727;-67
2024/03/05 00:08:56;;;;;;;3.80;2.40;;;16.00;59.00;;;;;;5112364;28;20268;-66
2024/03/05 00:11:21;;;;;;;2.47;2.05;;;16.00;59.00;;;;;;5112638;28;20173;-66
2024/03/05 00:13:47;;;;;;;2.08;1.98;;;16.00;59.10;;;;;;5113142;28;20740;-65
2024/03/05 00:16:13;;;;;;;2.38;2.17;;;16.00;59.10;;;;;;5111875;27;20250;-66
2024/03/05 00:18:38;;;;;;;2.40;2.20;;;16.00;59.10;;;;;;5112935;28;20195;-66
2024/03/05 00:21:04;;;;;;;2.28;2.08;;;16.00;59.00;;;;;;5112983;28;20667;-66
2024/03/05 00:23:30;;;;;;;2.72;2.17;;;16.00;59.00;;;;;;5111774;28;20670;-66
2024/03/05 00:25:56;;;;;;;2.67;2.30;;;15.90;59.10;;;;;;5112721;28;20702;-66
2024/03/05 00:28:22;;;;;;;2.40;2.20;;;15.90;59.10;;;;;;5112685;28;20177;-66
2024/03/05 00:30:48;;;;;;;2.40;2.22;;;15.90;59.10;;;;;;5111953;28;20181;-66
2024/03/05 00:33:14;;;;;;;3.72;2.15;;;15.90;59.10;;;;;;5112396;28;20175;-65
2024/03/05 00:35:39;;;;;;;2.53;2.25;;;15.90;59.70;;;;;;5112064;28;20569;-65
2024/03/05 00:38:04;;;;;;;2.25;2.10;;;15.90;59.20;;;;;;5112563;28;20165;-66
2024/03/05 00:40:30;;;;;;;2.22;2.03;;;15.90;59.10;;;;;;5112139;28;20535;-66
2024/03/05 00:42:56;;;;;;;2.30;1.98;;;15.90;59.10;;;;;;5112117;28;20165;-66
2024/03/05 00:45:22;;;;;;;3.00;2.30;;;15.90;59.10;;;;;;5112172;28;20244;-65
2024/03/05 00:47:47;;;;;;;2.15;1.98;;;15.90;59.10;;;;;;5112566;28;20173;-66
2024/03/05 00:50:16;;;;;;;2.25;2.05;;;15.80;59.10;;;;;;5111399;28;20706;-67
2024/03/05 00:52:41;;;;;;;2.75;2.28;;;15.90;59.10;;;;;;5112388;28;20632;-66
2024/03/05 00:55:07;;;;;;;2.22;2.13;;;15.80;59.10;;;;;;5112571;28;20204;-65
2024/03/05 00:57:36;;;;;;;2.50;2.30;;;15.80;59.10;;;;;;5111653;28;20224;-65
2024/03/05 01:00:02;;;;;;;2.22;2.03;;;15.80;59.10;;;;;;5114930;28;20177;-65
2024/03/05 01:02:28;;;;;;;3.30;2.50;;;15.80;59.10;;;;;;5116385;28;20196;-66
2024/03/05 01:04:54;;;;;;;3.40;2.67;;;15.80;59.10;;;;;;5115983;28;20177;-66
2024/03/05 01:07:19;;;;;;;2.58;2.38;;;15.80;59.10;;;;;;5116161;28;20172;-66
2024/03/05 01:09:46;;;;;;;2.35;2.15;;;15.80;59.10;;;;;;5116674;28;20169;-66
2024/03/05 01:12:12;;;;;;;2.53;2.33;;;15.80;59.10;;;;;;5115639;28;20177;-66
2024/03/05 01:14:38;;;;;;;2.40;2.20;;;15.70;59.10;;;;;;5116263;28;20219;-65
2024/03/05 01:17:04;;;;;;;2.58;2.38;;;15.80;59.10;;;;;;5116418;28;20222;-65
2024/03/05 01:19:31;;;;;;;2.45;2.25;;;15.70;59.10;;;;;;5115432;28;20188;-66
2024/03/05 01:21:58;;;;;;;2.58;2.38;;;15.70;59.10;;;;;;5116304;28;20180;-65
2024/03/05 01:24:25;;;;;;;2.42;2.22;;;15.80;59.10;;;;;;5116272;28;20297;-65
2024/03/05 01:26:51;;;;;;;2.35;2.03;;;15.70;59.20;;;;;;5115788;27;20268;-65
2024/03/05 01:29:21;;;;;;;1.92;1.83;;;15.70;59.20;;;;;;5115924;28;20255;-65
2024/03/05 01:31:57;;;;;;;1.90;1.80;;;15.70;59.70;;;;;;5116266;27;20280;-66
2024/03/05 01:34:23;;;;;;;2.40;2.20;;;15.70;59.20;;;;;;5115644;28;20231;-66
2024/03/05 01:36:49;;;;;;;3.42;2.20;;;15.70;59.20;;;;;;5116281;28;20647;-66
2024/03/05 01:39:16;;;;;;;3.45;2.33;;;15.70;59.20;;;;;;5115145;28;20223;-66
2024/03/05 01:41:44;;;;;;;2.25;2.05;;;15.70;59.20;;;;;;5115919;28;20204;-65
2024/03/05 01:44:13;;;;;;;2.30;2.10;;;15.70;59.20;;;;;;5115633;28;20177;-66
2024/03/05 01:46:39;;;;;;;2.03;1.92;;;15.70;59.20;;;;;;5115190;28;20180;-65
2024/03/05 01:49:08;;;;;;;3.00;2.60;;;15.70;59.20;;;;;;5114523;28;20218;-66
2024/03/05 01:51:33;;;;;;;2.65;2.45;;;15.70;59.20;;;;;;5098123;28;20637;-66
2024/03/05 01:53:59;;;;;;;2.42;2.10;;;15.70;59.20;;;;;;5115141;28;20193;-65
2024/03/05 01:56:28;;;;;;;2.83;2.10;;;15.70;59.20;;;;;;5115453;28;20213;-65
2024/03/05 01:58:54;;;;;;;2.20;2.00;;;15.70;59.20;;;;;;5114241;28;20213;-64
2024/03/05 02:01:21;;;;;;;2.25;1.92;;;15.70;59.20;;;;;;5114605;28;20184;-65
2024/03/05 02:03:46;;;;;;;2.50;2.28;;;15.70;59.20;;;;;;5114108;28;20185;-66
2024/03/05 02:06:12;;;;;;;3.13;2.05;;;15.70;59.30;;;;;;5114069;28;20180;-66
2024/03/05 02:08:38;;;;;;;2.47;2.28;;;15.70;59.30;;;;;;5096646;28;20532;-66
2024/03/05 02:11:04;;;;;;;2.20;2.00;;;15.60;59.20;;;;;;5113430;28;20180;-65
2024/03/05 02:13:30;;;;;;;3.20;2.42;;;15.70;59.30;;;;;;5114979;28;20169;-65
2024/03/05 02:15:55;;;;;;;2.05;1.88;;;15.60;59.30;;;;;;5113294;28;20283;-65
2024/03/05 02:18:21;;;;;;;2.60;2.40;;;15.60;59.20;;;;;;5114888;28;20651;-66
2024/03/05 02:20:46;;;;;;;2.45;2.15;;;15.70;59.30;;;;;;5115098;28;20291;-65
2024/03/05 02:23:12;;;;;;;2.72;2.20;;;15.60;59.20;;;;;;5114280;28;20169;-66
2024/03/05 02:25:37;;;;;;;2.35;2.15;;;15.60;59.90;;;;;;5115141;28;20544;-65
2024/03/05 02:28:03;;;;;;;2.22;2.03;;;15.60;59.30;;;;;;5115085;28;20173;-65
2024/03/05 02:30:32;;;;;;;2.63;2.33;;;15.60;59.30;;;;;;5114164;28;20255;-65
2024/03/05 02:32:57;;;;;;;2.72;2.22;;;15.60;59.30;;;;;;5115120;28;20176;-66
2024/03/05 02:35:23;;;;;;;2.58;2.38;;;15.60;59.30;;;;;;5113705;28;20600;-65
2024/03/05 02:37:49;;;;;;;2.50;2.30;;;15.60;59.30;;;;;;5114734;28;20178;-66
2024/03/05 02:40:15;;;;;;;3.40;2.55;;;15.60;59.30;;;;;;5114563;28;20173;-66
2024/03/05 02:42:40;;;;;;;2.55;2.35;;;15.60;59.30;;;;;;5114042;28;20173;-66
2024/03/05 02:45:07;;;;;;;2.40;2.20;;;15.60;59.30;;;;;;5114606;28;20169;-66
2024/03/05 02:47:39;;;;;;;2.40;2.20;;;15.60;59.30;;;;;;5114444;28;20272;-66
2024/03/05 02:50:05;;;;;;;2.50;2.30;;;15.60;59.30;;;;;;5113997;28;20173;-66
2024/03/05 02:52:30;;;;;;;2.70;2.50;;;15.60;59.30;;;;;;5114436;28;20172;-66
2024/03/05 02:54:57;;;;;;;2.40;2.20;;;15.60;59.40;;;;;;5114593;28;20236;-65
2024/03/05 02:57:22;;;;;;;2.70;2.50;;;15.60;60.10;;;;;;5112113;28;20221;-65
2024/03/05 02:59:48;;;;;;;3.00;2.70;;;15.60;59.40;;;;;;5114335;28;20650;-65
2024/03/05 03:02:13;;;;;;;2.58;2.38;;;15.60;59.40;;;;;;5114080;28;20169;-66
2024/03/05 03:04:39;;;;;;;3.53;2.67;;;15.50;59.40;;;;;;5114036;28;20264;-66
2024/03/05 03:07:04;;;;;;;3.30;2.97;;;15.50;59.30;;;;;;5114219;28;20636;-66
2024/03/05 03:09:30;;;;;;;2.92;2.67;;;15.60;59.40;;;;;;5113941;28;20173;-66
2024/03/05 03:11:56;;;;;;;2.38;2.17;;;15.60;59.40;;;;;;5113499;28;20165;-66
2024/03/05 03:14:22;;;;;;;3.30;2.70;;;15.60;59.40;;;;;;5113578;28;20260;-65
2024/03/05 03:16:49;;;;;;;4.43;3.00;;;15.60;59.40;;;;;;5114366;28;20700;-66
2024/03/05 03:19:16;;;;;;;2.60;2.40;;;15.50;59.40;;;;;;5113171;28;20169;-65
2024/03/05 03:21:42;;;;;;;3.25;2.70;;;15.60;59.50;;;;;;5114100;28;20181;-66
2024/03/05 03:24:10;;;;;;;2.90;2.60;;;15.50;59.40;;;;;;5112964;28;20170;-65
2024/03/05 03:26:36;;;;;;;5.07;3.03;;;15.50;59.40;;;;;;5113205;28;20219;-66
2024/03/05 03:29:02;;;;;;;2.70;2.50;;;15.50;59.40;;;;;;5113727;28;20251;-65
2024/03/05 03:31:28;;;;;;;3.05;2.75;;;15.50;59.40;;;;;;5113403;28;20227;-65
2024/03/05 03:33:53;;;;;;;2.80;2.53;;;15.50;59.50;;;;;;5113595;28;20310;-66
2024/03/05 03:36:23;;;;;;;2.70;2.30;;;15.50;59.50;;;;;;5113429;28;20216;-66
2024/03/05 03:38:49;;;;;;;2.47;2.25;;;15.50;59.50;;;;;;5113084;28;20184;-66
2024/03/05 03:41:15;;;;;;;2.75;2.55;;;15.50;59.50;;;;;;5113374;28;20177;-65
2024/03/05 03:43:40;;;;;;;2.42;2.22;;;15.50;59.40;;;;;;5113473;28;20165;-66
2024/03/05 03:46:06;;;;;;;2.83;2.47;;;15.50;59.50;;;;;;5112871;28;20299;-65
2024/03/05 03:48:41;;;;;;;3.13;2.83;;;15.50;59.50;;;;;;5113292;28;20263;-66
2024/03/05 03:51:06;;;;;;;3.13;2.83;;;15.50;59.50;;;;;;5113579;28;20177;-66
2024/03/05 03:53:36;;;;;;;3.63;2.90;;;15.50;59.50;;;;;;5112424;28;20214;-66
2024/03/05 03:56:02;;;;;;;3.17;2.78;;;15.50;59.50;;;;;;5113172;28;20671;-65
2024/03/05 03:58:28;;;;;;;3.08;2.78;;;15.50;59.50;;;;;;5112774;28;20312;-65
2024/03/05 04:00:53;;;;;;;2.85;2.50;;;15.50;59.50;;;;;;5112744;28;20705;-65
2024/03/05 04:03:19;;;;;;;2.80;2.60;;;15.40;59.50;;;;;;5112805;28;20662;-66
2024/03/05 04:05:48;;;;;;;2.58;2.38;;;15.50;59.50;;;;;;5113253;28;20173;-66
2024/03/05 04:08:13;;;;;;;2.97;2.70;;;15.50;59.50;;;;;;5111622;28;20328;-67
2024/03/05 04:10:39;;;;;;;3.38;2.55;;;15.40;59.50;;;;;;5113021;28;20283;-66
2024/03/05 04:13:04;;;;;;;2.70;2.50;;;15.50;59.60;;;;;;5113544;28;20260;-65
2024/03/05 04:15:30;;;;;;;2.45;2.25;;;15.40;59.50;;;;;;5112167;28;20393;-66
2024/03/05 04:17:57;;;;;;;2.75;2.55;;;15.40;59.50;;;;;;5112971;28;20248;-66
2024/03/05 04:20:23;;;;;;;2.90;2.47;;;15.40;59.60;;;;;;5112655;28;20523;-66
2024/03/05 04:22:48;;;;;;;3.13;2.75;;;15.40;59.50;;;;;;5112305;28;20226;-65
2024/03/05 04:25:14;;;;;;;2.75;2.55;;;15.30;59.50;;;;;;5112564;28;20272;-65
2024/03/05 04:27:45;;;;;;;2.65;2.45;;;15.40;59.50;;;;;;5113237;28;20173;-65
2024/03/05 04:30:14;;;;;;;3.20;2.72;;;15.40;59.50;;;;;;5112727;28;20583;-66
2024/03/05 04:32:46;;;;;;;4.00;2.85;;;15.40;59.60;;;;;;5112885;28;20230;-66
2024/03/05 04:35:16;;;;;;;3.58;2.90;;;15.40;59.60;;;;;;5111271;28;20242;-66
2024/03/05 04:37:42;;;;;;;2.85;2.65;;;15.40;59.60;;;;;;5112609;28;20177;-66
2024/03/05 04:40:10;;;;;;;3.53;2.85;;;15.40;59.60;;;;;;5112425;28;20184;-66
2024/03/05 04:42:41;;;;;;;3.15;2.85;;;15.40;59.60;;;;;;5112320;28;20172;-66
2024/03/05 04:45:07;;;;;;;2.88;2.58;;;15.40;59.60;;;;;;5112632;28;20181;-66
2024/03/05 04:47:33;;;;;;;3.38;3.08;;;15.40;59.60;;;;;;5112485;28;20182;-66
2024/03/05 04:50:02;;;;;;;4.10;3.20;;;15.40;59.60;;;;;;5111779;28;20173;-66
2024/03/05 04:52:27;;;;;;;2.83;2.63;;;15.40;59.60;;;;;;5112084;28;20189;-66
2024/03/05 04:54:57;;;;;;;2.90;2.65;;;15.30;59.60;;;;;;5112251;28;20216;-65
2024/03/05 04:57:23;;;;;;;3.28;2.97;;;15.30;59.60;;;;;;5111306;28;20224;-65
2024/03/05 04:59:49;;;;;;;4.60;3.38;;;15.30;59.60;;;;;;5112511;28;20244;-66
2024/03/05 05:02:15;;;;;;;3.20;2.88;;;15.40;59.70;;;;;;5112131;28;20200;-66
2024/03/05 05:04:41;;;;;;;3.78;2.90;;;15.40;59.70;;;;;;5111726;28;20169;-66
2024/03/05 05:07:07;;;;;;;2.90;2.70;;;15.30;59.60;;;;;;5112272;28;20604;-66
2024/03/05 05:09:33;;;;;;;3.40;3.10;;;15.40;59.70;;;;;;5112458;28;20246;-66
2024/03/05 05:11:59;;;;;;;3.40;3.10;;;15.30;59.70;;;;;;5111767;28;20173;-65
2024/03/05 05:14:24;;;;;;;3.30;3.00;;;15.30;59.70;;;;;;5112018;28;20267;-66
2024/03/05 05:16:51;;;;;;;3.13;2.63;;;15.30;59.60;;;;;;5112373;28;20263;-66
2024/03/05 05:19:17;;;;;;;3.17;2.90;;;15.30;59.70;;;;;;5111287;28;20184;-65
2024/03/05 05:21:45;;;;;;;3.25;2.95;;;15.30;59.70;;;;;;5112124;28;20534;-66
2024/03/05 05:24:11;;;;;;;3.25;2.95;;;15.30;59.70;;;;;;5111300;28;20200;-65
2024/03/05 05:26:38;;;;;;;3.95;2.95;;;15.30;59.70;;;;;;5112270;28;20230;-65
2024/03/05 05:29:04;;;;;;;4.05;3.15;;;15.30;59.70;;;;;;5112351;28;20204;-65
2024/03/05 05:31:29;;;;;;;4.88;3.50;;;15.30;59.70;;;;;;5111342;28;20201;-65
2024/03/05 05:33:58;;;;;;;4.05;3.65;;;15.30;59.70;;;;;;5112127;28;20209;-66
2024/03/05 05:36:23;;;;;;;3.50;3.20;;;15.30;59.70;;;;;;5112141;28;20300;-66
2024/03/05 05:38:50;;;;;;;4.18;3.63;;;15.30;59.80;;;;;;5111627;28;20260;-66
2024/03/05 05:41:18;;;;;;;3.63;3.33;;;15.30;59.80;;;;;;5111761;28;20234;-66
2024/03/05 05:43:44;;;;;;;3.50;3.20;;;15.30;59.70;;;;;;5112169;28;20252;-65
2024/03/05 05:46:14;;;;;;;3.72;3.38;;;15.30;59.80;;;;;;5111733;28;20288;-65
2024/03/05 05:48:42;;;;;;;3.78;3.28;;;15.30;59.90;;;;;;5115773;28;20260;-65
2024/03/05 05:51:11;;;;;;;4.35;3.30;;;15.30;59.80;;;;;;5115513;28;20573;-65
2024/03/05 05:53:37;;;;;;;3.70;3.28;;;15.30;59.80;;;;;;5115072;28;20700;-65
2024/03/05 05:56:05;;;;;;;3.95;3.55;;;15.30;59.70;;;;;;5115504;28;20261;-65
2024/03/05 05:58:30;;;;;;;5.72;3.65;;;15.40;59.70;;;;;;5115297;28;20307;-64
2024/03/05 06:00:56;;;;;;;3.70;3.33;;;15.40;59.70;;;;;;5114922;28;20272;-64
2024/03/05 06:03:22;;;;;;;4.90;3.75;;;15.40;59.60;;;;;;5115134;28;20652;-65
2024/03/05 06:05:48;;;;;;;4.10;3.40;;;15.40;59.50;;;;;;5115754;28;20208;-65
2024/03/05 06:08:14;;;;;;;4.15;3.75;;;15.40;59.50;;;;;;5114610;28;20605;-66
2024/03/05 06:10:43;;;;;;;4.10;3.47;;;15.40;59.50;;;;;;5115453;28;20173;-65
2024/03/05 06:13:09;;;;;;;4.68;3.47;;;15.40;59.50;;;;;;5115083;28;20172;-65
2024/03/05 06:15:38;;;;;;;4.97;3.55;;;15.40;59.60;;;;;;5114528;28;20560;-65
2024/03/05 06:18:04;;;;;;;4.45;4.00;;;15.40;59.50;;;;;;5115186;28;20666;-65
2024/03/05 06:20:29;;;;;;;3.70;3.35;;;15.40;59.60;;;;;;5114162;28;20538;-65
2024/03/05 06:23:00;;;;;;;4.47;3.47;;;15.40;59.60;;;;;;5115020;28;20184;-65
2024/03/05 06:25:27;;;;;;;5.38;4.20;;;15.40;59.70;;;;;;5114910;28;20256;-65
2024/03/05 06:27:55;;;;;;;4.10;3.40;;;15.40;59.60;;;;;;5114443;28;20173;-65
2024/03/05 06:30:22;;;;;;;3.97;3.60;;;15.40;59.60;;;;;;5114512;28;20201;-65
2024/03/05 06:32:48;;;;;;;3.92;3.55;;;15.40;59.50;;;;;;5115189;28;20173;-65
2024/03/05 06:35:15;;;;;;;4.13;3.67;;;15.50;59.50;;;;;;5113949;28;20244;-65
2024/03/05 06:37:41;;;;;;;5.97;4.10;;;15.50;59.50;;;;;;5114944;28;20252;-65
2024/03/05 06:40:11;;;;;;;6.30;3.97;;;15.50;59.50;;;;;;5114898;28;20211;-65
2024/03/05 06:42:38;;;;;;;4.22;3.78;;;15.50;59.50;;;;;;5114206;28;20180;-65
2024/03/05 06:45:06;;;;;;;5.47;3.50;;;15.50;59.50;;;;;;5114670;28;20178;-65
2024/03/05 06:47:46;;;;;;;5.13;4.03;;;15.50;59.50;;;;;;5114513;28;20181;-65
2024/03/05 06:50:19;;;;;;;5.47;3.80;;;15.40;59.60;;;;;;5113816;28;20188;-65
2024/03/05 06:58:16;;;;;;;4.57;3.83;;;15.60;59.60;;;;;;5113817;28;20247;-65
2024/03/05 07:00:44;;;;;;;4.57;3.50;;;15.70;59.50;;;;;;5114517;28;20223;-65
2024/03/05 07:03:12;;;;;;;4.20;3.80;;;15.70;59.40;;;;;;5113426;28;20201;-66
2024/03/05 07:05:37;;;;;;;3.72;3.33;;;15.90;59.30;;;;;;5114312;28;20635;-66
2024/03/05 07:08:05;;;;;;;3.90;3.25;;;16.10;59.10;;;;;;5114489;28;20238;-66
2024/03/05 07:10:31;;;;;;;3.50;3.20;;;16.20;58.90;;;;;;5113463;28;20177;-65
2024/03/05 07:12:57;;;;;;;4.95;3.20;;;16.40;58.70;;;;;;5114295;28;20684;-65
2024/03/05 07:15:23;;;;;;;4.30;3.45;;;16.50;58.50;;;;;;5113822;28;20239;-65
2024/03/05 07:17:49;;;;;;;3.88;3.40;;;16.60;58.30;;;;;;5113384;28;20180;-65
2024/03/05 07:20:24;;;;;;;4.60;3.60;;;16.50;58.30;;;;;;5113533;28;20180;-65
2024/03/05 07:22:51;;;;;;;4.05;3.20;;;16.60;58.30;;;;;;5114262;28;20216;-65
2024/03/05 07:25:17;;;;;;;5.00;3.15;;;16.70;58.30;;;;;;5113147;28;20222;-64
2024/03/05 07:27:49;;;;;;;4.80;2.95;;;16.70;58.30;;;;;;5114050;28;20177;-65
2024/03/05 07:30:18;;;;;;;4.40;3.30;;;16.80;58.10;;;;;;5113581;28;20219;-65
2024/03/05 07:32:45;;;;;;;4.10;3.33;;;16.90;58.10;;;;;;5111870;28;20176;-65
2024/03/05 07:35:11;;;;;;;5.30;3.22;;;16.90;58.00;;;;;;5113538;28;20220;-67
2024/03/05 07:37:37;;;;;;;5.32;3.10;;;17.00;57.90;;;;;;5113677;28;20177;-66
2024/03/05 07:40:16;;;;;;;5.25;3.92;;;17.00;57.80;;;;;;5113329;28;20177;-65
2024/03/05 07:42:48;;;;;;;4.30;3.50;;;17.10;57.90;;;;;;5113576;28;20176;-63
2024/03/05 07:45:15;;;;;;;5.43;3.88;;;17.00;57.80;;;;;;5112395;28;20269;-66
2024/03/05 07:47:41;;;;;;;3.22;2.90;;;17.10;58.00;;;;;;5113774;28;20176;-65
2024/03/05 07:50:12;;;;;;;6.35;3.28;;;17.20;58.00;;;;;;5113604;28;20173;-66
2024/03/05 07:52:38;;;;;;;4.38;3.30;;;17.20;58.00;;;;;;5112701;28;20543;-65
2024/03/05 07:55:06;;;;;;;3.72;3.20;;;17.30;57.90;;;;;;5113226;28;20705;-65
2024/03/05 07:57:31;;;;;;;5.20;2.75;;;17.30;57.80;;;;;;5112801;28;20225;-65
2024/03/05 07:59:57;;;;;;;5.30;3.20;;;17.40;57.80;;;;;;5112570;28;20226;-64
2024/03/05 08:02:23;;;;;;;5.15;3.45;;;17.40;57.80;;;;;;5113108;28;20169;-65
2024/03/05 08:04:48;;;;;;;4.28;2.92;;;17.50;57.80;;;;;;5113403;28;20176;-65
2024/03/05 08:07:14;;;;;;;4.65;3.33;;;17.50;57.80;;;;;;5112248;28;20173;-66
2024/03/05 08:09:39;;;;;;;4.75;3.42;;;17.50;57.70;;;;;;5112628;28;20169;-66
2024/03/05 08:12:05;;;;;;;3.80;2.88;;;17.60;57.60;;;;;;5113153;28;20663;-66
2024/03/05 08:14:31;;;;;;;3.15;2.60;;;17.60;57.60;;;;;;5111906;28;20784;-65
2024/03/05 08:17:00;;;;;;;3.58;2.72;;;17.70;57.60;;;;;;5113127;28;20708;-65
2024/03/05 08:19:25;;;;;;;3.88;3.05;;;17.70;57.60;;;;;;5112792;28;20176;-64
2024/03/05 08:21:51;;;;;;;4.18;3.28;;;17.70;57.60;;;;;;5111737;28;20176;-64
2024/03/05 08:24:17;;;;;;;4.43;3.28;;;17.70;57.70;;;;;;5111599;28;20263;-64
2024/03/05 08:26:42;;;;;;;4.55;3.38;;;17.70;57.70;;;;;;5112372;28;20267;-64
2024/03/05 08:29:08;;;;;;;4.82;3.35;;;17.70;57.80;;;;;;5111351;28;20256;-64
2024/03/05 08:31:33;;;;;;;5.03;3.33;;;17.60;57.70;;;;;;5112484;28;20177;-64
2024/03/05 08:34:01;;;;;;;5.40;3.30;;;17.70;57.90;;;;;;5111807;28;20200;-64
2024/03/05 08:36:32;;;;;;;5.68;3.97;;;17.70;57.90;;;;;;5112174;28;20221;-64
2024/03/05 08:38:58;;;;;;;6.03;3.50;;;17.70;57.90;;;;;;5112825;28;20181;-64
2024/03/05 08:41:23;;;;;;;4.40;3.58;;;17.70;58.00;;;;;;5111728;28;20180;-64
2024/03/05 08:43:49;;;;;;;5.40;3.78;;;17.70;57.90;;;;;;5112533;28;20196;-64
2024/03/05 08:46:14;;;;;;;6.55;3.63;;;17.60;57.90;;;;;;5112427;28;20542;-64
2024/03/05 08:48:40;;;;;;;4.07;3.53;;;17.60;57.90;;;;;;5111866;28;20169;-64
2024/03/05 08:51:08;;;;;;;4.93;3.47;;;17.60;58.00;;;;;;5112691;28;20173;-64
2024/03/05 08:53:34;;;;;;;7.70;4.03;;;17.60;58.10;;;;;;5112476;28;20169;-65
2024/03/05 08:55:59;;;;;;;4.25;3.50;;;17.50;58.10;;;;;;5111651;28;20219;-64
2024/03/05 08:58:24;;;;;;;4.72;3.83;;;17.40;58.30;;;;;;5111966;28;20224;-63
2024/03/05 09:00:50;;;;;;;5.07;3.75;;;17.40;58.50;;;;;;5112679;28;20181;-64
2024/03/05 09:03:16;;;;;;;4.65;4.05;;;17.30;58.50;;;;;;5111458;28;20178;-64
2024/03/05 09:05:41;;;;;;;4.88;3.72;;;17.30;58.70;;;;;;5112509;28;20181;-64
2024/03/05 09:08:07;;;;;;;4.72;4.05;;;17.30;58.80;;;;;;5112493;28;20214;-64
2024/03/05 09:10:32;;;;;;;5.35;3.92;;;17.30;58.80;;;;;;5111414;28;20218;-64
2024/03/05 09:12:58;;;;;;;4.25;3.75;;;17.20;58.80;;;;;;5112300;28;20268;-63
2024/03/05 09:15:25;;;;;;;5.32;3.92;;;17.20;58.90;;;;;;5112043;28;20204;-64
2024/03/05 09:17:51;;;;;;;5.75;4.15;;;17.10;58.90;;;;;;5111534;28;20562;-63
2024/03/05 09:20:17;;;;;;;5.28;4.40;;;17.10;59.00;;;;;;5111958;28;20259;-64
2024/03/05 09:22:45;;;;;;;5.97;4.18;;;17.00;58.90;;;;;;5115766;28;20256;-64
2024/03/05 09:25:12;;;;;;;5.88;4.18;;;17.00;59.00;;;;;;5115341;28;20548;-64
2024/03/05 09:27:38;;;;;;;5.25;4.18;;;17.00;59.10;;;;;;5116554;28;20681;-64
2024/03/05 09:30:05;;;;;;;5.47;4.05;;;17.00;59.20;;;;;;5116416;28;20177;-63
2024/03/05 09:32:31;;;;;;;5.18;3.88;;;17.00;59.20;;;;;;5114124;28;20169;-64
2024/03/05 09:34:56;;;;;;;5.90;4.00;;;17.00;59.20;;;;;;5116154;28;20578;-64
2024/03/05 09:37:23;;;;;;;5.90;4.47;;;17.00;59.20;;;;;;5115016;28;20217;-64
2024/03/05 09:39:50;;;;;;;7.07;5.10;;;17.10;59.20;;;;;;5116014;28;20169;-64
2024/03/05 09:42:16;;;;;;;6.03;4.18;;;17.00;59.20;;;;;;5115957;28;20210;-64
2024/03/05 09:44:44;;;;;;;6.47;4.63;;;17.00;59.20;;;;;;5097180;28;20262;-64
2024/03/05 09:47:12;;;;;;;5.65;4.45;;;17.00;59.20;;;;;;5114365;28;20546;-64
2024/03/05 09:49:38;;;;;;;6.65;4.60;;;16.90;59.20;;;;;;5114622;28;20651;-64
2024/03/05 09:52:04;;;;;;;7.13;5.03;;;16.90;59.40;;;;;;5096872;28;20246;-65
2024/03/05 09:54:30;;;;;;;4.85;3.88;;;16.90;59.40;;;;;;5114120;28;20180;-64
2024/03/05 09:56:55;;;;;;;6.75;5.00;;;16.90;59.50;;;;;;5114478;28;20173;-64
2024/03/05 09:59:24;;;;;;;5.88;3.90;;;16.90;59.50;;;;;;5113300;28;20225;-64
2024/03/05 10:01:49;;;;;;;6.00;4.97;;;17.00;59.60;;;;;;5115596;28;20184;-63
2024/03/05 10:04:16;;;;;;;5.38;4.35;;;16.90;59.50;;;;;;5115436;28;20169;-64
2024/03/05 10:06:50;;;;;;;6.97;4.85;;;16.90;59.40;;;;;;5114944;28;20181;-65
2024/03/05 10:09:17;;;;;;;6.13;4.40;;;16.90;59.40;;;;;;5115170;28;20252;-65
2024/03/05 10:11:42;;;;;;;5.55;4.35;;;16.90;59.40;;;;;;5115201;28;20241;-65
2024/03/05 10:14:08;;;;;;;8.02;4.72;;;16.90;59.50;;;;;;5114395;28;20173;-63
2024/03/05 10:16:34;;;;;;;7.53;4.93;;;16.90;59.50;;;;;;5114961;28;20333;-61
2024/03/05 10:19:20;;;;;;;6.85;4.85;;;16.80;59.50;;;;;;5114957;28;20184;-60
2024/03/05 10:21:49;;;;;;;7.82;5.35;;;16.80;59.50;;;;;;5114145;28;20184;-61
2024/03/05 10:24:15;;;;;;;5.80;4.82;;;16.80;59.50;;;;;;5119848;27;20181;-61
2024/03/05 10:26:41;;;;;;;5.82;4.72;;;16.80;59.60;;;;;;5117593;27;20650;-61
2024/03/05 10:29:09;;;;;;;6.07;4.82;;;16.80;59.60;;;;;;5133409;27;20176;-61
2024/03/05 10:31:38;;;;;;;7.25;4.88;;;16.80;59.60;;;;;;5121248;27;20176;-61
2024/03/05 10:34:04;;;;;;;7.00;4.95;;;16.90;59.60;;;;;;5134978;27;20177;-60
2024/03/05 10:36:31;;;;;;;8.38;5.53;;;16.90;59.50;;;;;;5135101;27;20299;-61
2024/03/05 10:38:57;;;;;;;7.53;5.30;;;16.90;59.60;;;;;;5135567;27;20200;-60
2024/03/05 10:41:37;;;;;;;8.15;5.93;;;16.80;59.50;;;;;;5120495;27;20662;-61
2024/03/05 10:44:03;;;;;;;6.28;5.00;;;16.80;59.60;;;;;;5114926;28;20169;-61
2024/03/05 10:46:29;;;;;;;7.32;4.57;;;16.80;59.60;;;;;;5096146;28;20575;-61
2024/03/05 10:49:07;;;;;;;5.63;4.70;;;16.80;59.60;;;;;;5114215;28;20176;-61
2024/03/05 10:51:37;;;;;;;6.05;5.00;;;16.80;59.70;;;;;;5114521;28;20655;-61
2024/03/05 10:54:04;;;;;;;6.40;5.20;;;16.70;59.70;;;;;;5113450;28;20202;-61
2024/03/05 10:56:30;;;;;;;7.53;5.50;;;16.70;59.80;;;;;;5113290;28;20326;-61
2024/03/05 11:01:40;;;;;;;6.85;5.63;;;16.80;59.70;;;;;;5134332;27;20694;-60
2024/03/05 11:04:10;;;;;;;6.40;5.47;;;16.80;59.70;;;;;;5134851;27;20259;-61
2024/03/05 11:06:36;;;;;;;8.85;5.68;;;16.80;59.70;;;;;;5134947;27;20183;-61
2024/03/05 11:09:02;;;;;;;6.70;5.68;;;16.80;59.70;;;;;;5134137;27;20185;-61
2024/03/05 11:11:31;;;;;;;6.38;5.30;;;16.70;59.60;;;;;;5132993;27;20184;-61
2024/03/05 11:14:01;;;;;;;7.07;5.75;;;16.70;59.70;;;;;;5134723;27;20583;-60
2024/03/05 11:16:28;;;;;;;6.90;5.72;;;16.70;59.70;;;;;;5133757;27;20212;-60
2024/03/05 11:18:53;;;;;;;6.63;5.30;;;16.70;59.80;;;;;;5134632;27;20176;-60
2024/03/05 11:21:19;;;;;;;8.05;6.18;;;16.70;59.90;;;;;;5134290;27;20255;-61
2024/03/05 11:23:50;;;;;;;6.47;5.28;;;16.70;59.90;;;;;;5115326;27;20582;-60
2024/03/05 11:26:20;;;;;;;6.20;5.20;;;16.60;59.90;;;;;;5134034;27;20259;-60
2024/03/05 11:28:51;;;;;;;8.63;5.88;;;16.60;59.90;;;;;;5133244;27;20175;-60
2024/03/05 11:31:18;;;;;;;7.45;6.05;;;16.60;59.90;;;;;;5130502;27;20547;-60
2024/03/05 11:33:51;;;;;;;6.45;5.85;;;16.60;59.90;;;;;;5114097;28;20310;-60
2024/03/05 11:36:23;;;;;;;8.35;6.45;;;16.60;59.90;;;;;;5112063;28;20612;-61
2024/03/05 11:39:05;;;;;;;6.68;5.30;;;16.60;60.00;;;;;;5113497;28;20177;-61
2024/03/05 11:41:32;;;;;;;7.53;5.40;;;16.50;59.90;;;;;;5113559;28;20541;-61
2024/03/05 11:43:57;;;;;;;6.72;5.60;;;16.60;60.00;;;;;;5111936;28;20175;-60
2024/03/05 11:46:43;;;;;;;6.75;6.05;;;16.60;60.00;;;;;;5113165;28;20267;-61
2024/03/05 11:49:09;;;;;;;6.90;5.35;;;16.50;60.00;;;;;;5113150;28;20643;-61
2024/03/05 11:51:34;;;;;;;9.60;5.75;;;16.50;60.00;;;;;;5112754;28;20184;-60
2024/03/05 11:54:00;;;;;;;8.13;5.97;;;16.50;60.00;;;;;;5113316;28;20181;-61
2024/03/05 11:56:25;;;;;;;6.93;5.78;;;16.50;59.90;;;;;;5112949;28;20254;-61
2024/03/05 11:58:54;;;;;;;7.65;5.60;;;16.60;59.90;;;;;;5112382;28;20266;-60
2024/03/05 12:01:23;;;;;;;7.05;5.45;;;16.50;59.90;;;;;;5113244;27;20177;-61
2024/03/05 12:04:08;;;;;;;6.80;5.88;;;16.60;60.00;;;;;;5113373;28;20165;-64
2024/03/05 12:06:38;;;;;;;6.10;5.50;;;16.50;59.90;;;;;;5112572;28;20177;-65
2024/03/05 12:09:13;;;;;;;7.43;5.38;;;16.50;59.90;;;;;;5113109;28;20181;-66
2024/03/05 12:11:39;;;;;;;8.07;5.95;;;16.50;59.80;;;;;;5113039;28;20205;-65
2024/03/05 12:14:10;;;;;;;6.68;5.78;;;16.90;60.10;;;;;;5112249;28;20264;-65
2024/03/05 12:16:39;;;;;;;6.30;5.53;;;16.50;60.00;;;;;;5112926;28;20205;-65
2024/03/05 12:19:06;;;;;;;5.72;5.13;;;16.50;60.00;;;;;;5111272;28;20222;-64
2024/03/05 12:21:32;;;;;;;7.63;5.63;;;16.50;60.10;;;;;;5111620;28;20181;-65
2024/03/05 12:24:00;;;;;;;6.82;5.25;;;16.50;60.10;;;;;;5094764;28;20169;-65
2024/03/05 12:26:26;;;;;;;5.70;4.97;;;16.50;60.20;;;;;;5110655;28;20172;-62
2024/03/05 12:28:52;;;;;;;6.25;5.50;;;16.40;60.20;;;;;;5111874;28;20161;-61
2024/03/05 12:31:18;;;;;;;5.63;5.03;;;16.40;60.30;;;;;;5115413;27;20179;-61
2024/03/05 12:33:43;;;;;;;6.20;5.43;;;16.40;60.40;;;;;;5132676;27;20173;-61
2024/03/05 12:36:13;;;;;;;6.10;5.50;;;16.40;60.50;;;;;;5132661;27;20803;-62
2024/03/05 12:38:38;;;;;;;7.15;5.50;;;16.40;60.50;;;;;;5132116;27;20512;-61
2024/03/05 12:41:04;;;;;;;7.05;5.10;;;16.40;60.50;;;;;;5132439;27;20653;-61
2024/03/05 12:43:30;;;;;;;6.85;5.00;;;16.40;60.50;;;;;;5133043;27;20180;-61
2024/03/05 12:46:03;;;;;;;6.35;5.05;;;16.30;60.50;;;;;;5133041;27;20541;-61
2024/03/05 12:48:31;;;;;;;5.18;4.63;;;16.30;60.50;;;;;;5132288;27;20176;-62
2024/03/05 12:50:59;;;;;;;6.25;5.57;;;16.30;60.50;;;;;;5133048;27;20653;-61
2024/03/05 12:53:24;;;;;;;5.88;5.32;;;16.30;60.40;;;;;;5132736;27;20176;-63
2024/03/05 12:55:59;;;;;;;5.80;5.25;;;16.30;60.40;;;;;;5131842;27;20215;-61